Strona główna
METAR-TAF:

METAR-TAF

Lotnisko :

Port lotniczy Blackpool

Blackpool, Anglia

Szerokość geograficzna: 53-46N, Długość geograficzna: 003-02W, wysokość: 10 m

Aktualna obserwacja pogody

Raport powstał 2 godziny i 44 minut temu, godzina 19:50 UTC
Wiatr 10 kt od południe
Temperatura 12°C
Wilgotność 62%
Ciśnienie 1015 hPa
Widzialność 10 km lub więcej
Rozproszone chmury na wysokości 4900 ft

METAR: EGNH 041950Z 18010KT 9999 SCT049 12/05 Q1015

czas: 23:34 (22:34 UTC)

Prognoza

Raport powstał 5 godziny i 30 minut temu, godzina 17:04 UTC
Prognoza ważna od 04 godzina 18 UTC do 04 godzina 20 UTC
Wiatr 13 kt od południe
Widzialność 10 km lub więcej
Rozproszone chmury na wysokości 4000 ft

TAF: EGNH 041704Z 0418/0420 17013KT 9999 SCT040

Obserwacja i prognoza pogody dla ponad 4000 lotnisk (raport METAR i TAF).

Dostępne stacje oznaczono żółtymi i czerwonymi punktami na mapie.

Najedź kursorem aby zobaczyć nazwę stacji.

Kliknij aby zobaczyć obserwacje i prognozy pogody.

Aby zmienić mapę: kliknij na zielony przycisk z czarnym krzyżykiem, aby powiększyć; na zielony przycisk z myślnikiem, aby pomniejszyć; na zielone strzałki, aby przejść do map sąsiednich.


METAR-TAF: